Terminal Aerodrome Forecast
Issued by NWS Newport/Morehead City, NC

Home | Current Version | Previous Version | Text Only | Print | Product List | Glossary On
Versions: 1 2 3 4 5 6 7 8 9 10 11 12 13 14 15 16 17 18 19 20
000
FTUS42 KMHX 251500 AAA
TAFEWN
TAF AMD
KEWN 251505Z 2515/2612 00000KT 3SM -RA BR SCT040 BKN060
      TEMPO 2515/2519 1SM RA OVC020
     FM251900 34005KT 4SM -RA BR OVC010
     FM260200 02006KT 4SM -RA BR OVC005=

USA.gov is the U.S. government's official web portal to all federal, state and local government web resources and services.